South Hiram, Maine
Current Conditions -  °F | °C
As of 7:54 PM on Tuesday 21 Oct 2014 (Local Time) from KIZG Reporting Station
Light Rain Light Rain  
Wind Chill:   Ceiling: 600
Heat Index:   Visibility: 10mi
Dew Point:   Wind: 6mph
Humidity: 93%   Direction: 350°N
Pressure: 30.06"   Gusts: NA
Location:  43.8772°N, 70.8351°W
Report Text: KIZG 212354Z AUTO 35005KT 10SM -RA BKN006 OVC011 08/07 A3006 RMK AO2 SLP184 P0002 60011 T00830072 10089 20083 51011
Loading
Personal Weather Stations






























Interactive Weather Map
Tropical Storm Tracking
New forecast layout! Learn more

10-Day Weather Forecast

Advertisements
Track Severe Weather on mobile